Terminal Aerodrome Forecast
Issued by NWS Caribou, ME

Home | Current Version | Previous Version | Text Only | Print | Product List | Glossary On
Versions: 1 2 3 4 5 6 7 8 9 10 11 12 13 14 15 16 17 18 19 20 21 22 23 24 25
233
FTUS41 KCAR 271230 AAA
TAFBGR
TAF AMD
KBGR 271230Z 2713/2812 11006KT 5SM -FZRA OVC035
     FM271600 14008KT 1SM -FZRASNPL OVC003
     FM272300 12008KT 3SM -FZRAPL OVC010
     FM280400 06006KT P6SM OVC015
     FM280700 04005KT 6SM BR OVC008=

USA.gov is the U.S. government's official web portal to all federal, state and local government web resources and services.